Huvudsida
METAR-TAF:

METAR-TAF

Flygplatser :

Pattaya-Rayong, Thailand

latitud: 12-38N, longitud: 101-21E, höjd: 3 m

Aktuellt väderrapport

Denna rapport gjordes för 33 minuter sedan, klockan 20:30 UTC
Vind 2 kt från nord
Temperatur 24°C
Fuktighet 83%
Tryck 1011 hPa
Sikt: 7000 m
Få moln på en höjd av 2000 ft

METAR: VTBU 212030Z 36002KT 7000 FEW020 24/21 Q1011 NOSIG

Tid: 04:03 (21:03 UTC)

Väderprognos

Denna rapport gjordes för 4 timmar och 3 minuter sedan, klockan 17:00 UTC
Prognos gäller från 21 kl. 18 UTC till 22 kl. 18 UTC
Vind 4 kt från nord
Sikt: 7000 m
Få moln på en höjd av 2000 ft
Blir
från 22 kl. 02 UTC till 22 kl. 04 UTC
Vind 8 kt från syd
Blir
från 22 kl. 14 UTC till 22 kl. 16 UTC
Vind 3 kt från nord
Sikt 10 km eller mer

TAF: VTBU 211700Z 2118/2218 01004KT 7000 FEW020 BECMG 2202/2204 17008KT BECMG 2214/2216 35003KT 9999

Aktuella väderrapporter och prognoser från 4000 flygplatser (METAR- och TAF-rapporter).

De tillgängliga stationerna syns som gula och röda prickar på kartan.

För musen över prickarna för att se namnen på stationerna.

Klicka sedan för att få väderrapporter och prognoser.

För att ändra kartan: Klicka på de gröna knapparna med ett svart kors på för att zooma in; den gröna knappen med ett streck på för att zooma ut; eller på de gröna pilarna för angränsande kartor.


METAR-TAF: